Time;durP1;ratioP1;P1;durP2;ratioP2;P2;SDS_P1;SDS_P2;PMS_P1;PMS_P2;Temp;Humidity;BMP_temperature;BMP_pressure;BME280_temperature;BME280_humidity;BME280_pressure;Samples;Min_cycle;Max_cycle;Signal;HPM_P1;HPM_P2
2021/06/29 00:01:22;;;;;;;5.30;4.80;;;19.60;80.20;;;;;;6251232;22;20000;-90
2021/06/29 00:03:47;;;;;;;7.30;5.00;;;19.60;81.00;;;;;;6251435;22;20087;-89
2021/06/29 00:06:13;;;;;;;5.43;3.90;;;19.50;80.70;;;;;;6251281;22;20000;-90
2021/06/29 00:08:39;;;;;;;5.05;4.35;;;19.50;80.90;;;;;;6278149;22;20007;-90
2021/06/29 00:11:04;;;;;;;5.00;4.43;;;19.40;81.10;;;;;;6251299;22;20091;-90
2021/06/29 00:13:31;;;;;;;5.60;4.43;;;19.40;81.30;;;;;;6251254;22;20427;-91
2021/06/29 00:15:56;;;;;;;4.40;4.00;;;19.40;81.50;;;;;;6274322;22;20008;-89
2021/06/29 00:18:22;;;;;;;6.18;4.78;;;19.40;81.60;;;;;;6279098;22;20030;-88
2021/06/29 00:20:48;;;;;;;5.00;4.45;;;19.40;81.60;;;;;;6278644;22;19988;-90
2021/06/29 00:23:14;;;;;;;5.22;4.13;;;19.40;81.70;;;;;;6299583;22;20042;-90
2021/06/29 00:25:40;;;;;;;4.63;4.20;;;19.30;82.00;;;;;;6307044;22;20047;-90
2021/06/29 00:28:05;;;;;;;5.32;4.50;;;19.30;82.30;;;;;;6291096;22;20065;-90
2021/06/29 00:30:31;;;;;;;5.00;4.50;;;19.30;82.40;;;;;;6279610;22;19999;-90
2021/06/29 00:32:57;;;;;;;4.90;3.80;;;19.30;82.40;;;;;;6280228;22;20003;-90
2021/06/29 00:35:22;;;;;;;4.35;3.95;;;19.30;82.30;;;;;;6280801;22;20312;-90
2021/06/29 00:37:48;;;;;;;4.88;3.92;;;19.30;82.40;;;;;;6280368;22;20000;-90
2021/06/29 00:40:14;;;;;;;4.95;4.03;;;19.30;82.30;;;;;;6278447;22;20006;-89
2021/06/29 00:42:41;;;;;;;4.07;3.70;;;19.20;82.20;;;;;;6278594;22;20057;-90
2021/06/29 00:45:08;;;;;;;4.25;3.83;;;19.30;82.50;;;;;;6278462;22;20442;-89
2021/06/29 00:47:34;;;;;;;5.55;3.97;;;19.30;82.60;;;;;;6278154;22;20086;-90
2021/06/29 00:50:00;;;;;;;5.13;3.78;;;19.20;82.50;;;;;;6278530;22;20363;-90
2021/06/29 00:52:28;;;;;;;4.05;3.65;;;19.20;82.70;;;;;;6278543;22;20004;-91
2021/06/29 00:54:53;;;;;;;4.07;3.30;;;19.20;82.60;;;;;;6278091;22;20004;-89
2021/06/29 00:57:19;;;;;;;4.85;3.63;;;19.20;82.80;;;;;;6278337;22;20138;-90
2021/06/29 00:59:45;;;;;;;4.93;3.95;;;19.20;82.90;;;;;;6279474;22;19999;-90
2021/06/29 01:02:12;;;;;;;5.07;4.40;;;19.20;83.00;;;;;;6278614;22;20004;-89
2021/06/29 01:04:40;;;;;;;6.43;4.18;;;19.20;83.20;;;;;;6278487;22;20003;-89
2021/06/29 01:07:08;;;;;;;5.55;3.72;;;19.20;83.10;;;;;;6278030;22;20004;-89
2021/06/29 01:09:33;;;;;;;4.07;3.67;;;19.20;82.90;;;;;;6279732;22;20000;-89
2021/06/29 01:11:59;;;;;;;5.65;4.30;;;19.20;82.80;;;;;;6278105;22;20446;-89
2021/06/29 01:14:25;;;;;;;4.15;3.75;;;19.20;83.50;;;;;;6279727;22;20000;-88
2021/06/29 01:16:50;;;;;;;5.88;4.05;;;19.20;82.90;;;;;;6282684;22;20003;-89
2021/06/29 01:19:32;;;;;;;5.18;4.28;;;19.20;83.00;;;;;;6282433;22;19999;-89
2021/06/29 01:21:57;;;;;;;6.55;4.28;;;19.20;82.90;;;;;;6291274;22;20084;-89
2021/06/29 01:24:30;;;;;;;5.57;4.28;;;19.20;83.00;;;;;;6292434;22;20004;-89
2021/06/29 01:27:19;;;;;;;4.95;4.18;;;19.10;83.10;;;;;;6293522;22;20053;-89
2021/06/29 01:32:21;;;;;;;5.32;4.13;;;19.10;83.20;;;;;;6290384;22;19996;-89
2021/06/29 01:34:47;;;;;;;5.80;4.15;;;19.10;83.40;;;;;;6277525;22;20423;-89
2021/06/29 01:37:14;;;;;;;4.05;3.65;;;19.10;83.30;;;;;;6279537;22;20462;-89
2021/06/29 01:39:57;;;;;;;4.75;4.15;;;19.10;83.30;;;;;;6281946;22;20003;-90
2021/06/29 01:42:22;;;;;;;4.20;3.80;;;19.10;83.70;;;;;;6279638;22;20082;-89
2021/06/29 01:44:48;;;;;;;4.60;4.03;;;19.10;83.40;;;;;;6278064;22;20427;-89
2021/06/29 01:47:23;;;;;;;3.75;3.40;;;19.10;83.50;;;;;;6277923;22;20011;-89
2021/06/29 01:49:49;;;;;;;4.10;3.63;;;19.10;83.50;;;;;;6279484;22;20064;-89
2021/06/29 01:52:15;;;;;;;4.72;3.90;;;19.10;83.50;;;;;;6277827;22;20439;-89
2021/06/29 01:54:42;;;;;;;4.78;3.97;;;19.10;83.50;;;;;;6277341;22;20003;-89
2021/06/29 01:57:13;;;;;;;6.82;4.28;;;19.00;83.70;;;;;;6277721;22;20007;-89
2021/06/29 01:59:43;;;;;;;4.32;3.92;;;19.10;83.80;;;;;;6279196;22;20004;-89
2021/06/29 02:02:09;;;;;;;4.32;3.85;;;19.00;83.70;;;;;;6277976;22;20375;-89
2021/06/29 02:04:35;;;;;;;4.60;3.75;;;19.00;83.70;;;;;;6277827;22;20011;-89
2021/06/29 02:07:00;;;;;;;4.78;4.00;;;19.00;84.30;;;;;;6278073;22;20003;-89
2021/06/29 02:09:26;;;;;;;6.85;4.90;;;19.00;83.80;;;;;;6277805;22;20059;-89
2021/06/29 02:11:52;;;;;;;5.25;3.97;;;19.00;83.90;;;;;;6277758;22;20000;-89
2021/06/29 02:14:17;;;;;;;4.80;4.32;;;19.00;84.10;;;;;;6277988;22;20350;-90
2021/06/29 02:16:43;;;;;;;5.45;4.20;;;19.00;84.10;;;;;;6277875;22;20334;-89
2021/06/29 02:19:09;;;;;;;6.50;4.50;;;19.00;84.40;;;;;;6278394;22;20004;-89
2021/06/29 02:21:36;;;;;;;6.40;4.43;;;18.90;84.40;;;;;;6280308;22;20007;-90
2021/06/29 02:24:02;;;;;;;5.78;4.57;;;19.00;84.50;;;;;;6279754;22;19984;-89
2021/06/29 02:26:28;;;;;;;6.50;4.70;;;19.00;84.50;;;;;;6279676;22;19999;-89
2021/06/29 02:28:54;;;;;;;6.03;4.95;;;19.00;84.70;;;;;;6280181;22;19994;-91
2021/06/29 02:31:20;;;;;;;5.25;4.57;;;19.00;84.70;;;;;;6279990;22;19992;-90
2021/06/29 02:33:45;;;;;;;5.63;4.90;;;19.00;84.70;;;;;;6279231;22;20003;-88
2021/06/29 02:36:11;;;;;;;9.95;4.70;;;19.00;84.70;;;;;;6269269;22;20008;-90
2021/06/29 02:38:37;;;;;;;5.72;4.60;;;19.10;84.80;;;;;;6271427;22;20000;-90
2021/06/29 02:41:04;;;;;;;6.60;4.68;;;19.10;84.70;;;;;;6273267;22;20003;-90
2021/06/29 02:43:30;;;;;;;4.55;4.15;;;19.10;84.60;;;;;;6264647;22;20008;-90
2021/06/29 02:45:56;;;;;;;8.50;5.00;;;19.20;84.70;;;;;;6278886;22;19995;-89
2021/06/29 02:48:21;;;;;;;6.95;4.18;;;19.20;84.50;;;;;;6252385;22;20008;-90
2021/06/29 02:50:47;;;;;;;4.85;4.35;;;19.30;84.40;;;;;;6252287;22;20514;-90
2021/06/29 02:53:13;;;;;;;4.70;4.20;;;19.40;84.30;;;;;;6251636;22;20032;-89
2021/06/29 02:55:39;;;;;;;4.78;4.15;;;19.40;84.10;;;;;;6251550;22;19999;-89
2021/06/29 02:58:05;;;;;;;4.78;4.25;;;19.40;83.90;;;;;;6251674;22;20011;-90
2021/06/29 03:00:30;;;;;;;6.43;4.80;;;19.50;83.90;;;;;;6251593;22;20089;-90
2021/06/29 03:02:57;;;;;;;9.43;4.72;;;19.60;83.80;;;;;;6252251;22;20000;-90
2021/06/29 03:05:22;;;;;;;5.05;4.50;;;19.70;83.40;;;;;;6251598;22;19999;-90
2021/06/29 03:07:48;;;;;;;7.03;4.60;;;19.80;83.20;;;;;;6251447;22;20059;-89
2021/06/29 03:10:14;;;;;;;4.72;4.10;;;19.80;82.90;;;;;;6278891;22;20023;-90
2021/06/29 03:12:39;;;;;;;5.25;4.75;;;19.90;82.60;;;;;;6251508;22;20022;-89
2021/06/29 03:15:07;;;;;;;5.38;4.82;;;20.00;82.40;;;;;;6251557;22;20399;-89
2021/06/29 03:17:33;;;;;;;5.18;4.68;;;20.00;82.30;;;;;;6251885;22;20082;-90
2021/06/29 03:20:00;;;;;;;5.00;4.55;;;20.00;82.10;;;;;;6278616;22;20510;-89
2021/06/29 03:22:26;;;;;;;5.35;4.85;;;20.10;82.00;;;;;;6258623;22;20073;-90
2021/06/29 03:24:52;;;;;;;4.72;4.28;;;20.10;81.80;;;;;;6277028;22;19999;-90
2021/06/29 03:27:18;;;;;;;7.35;4.80;;;20.20;81.70;;;;;;6276953;22;20006;-89
2021/06/29 03:29:45;;;;;;;5.70;5.00;;;20.20;81.50;;;;;;6277384;22;20418;-89
2021/06/29 03:32:11;;;;;;;5.00;4.50;;;20.30;81.40;;;;;;6278246;22;19995;-90
2021/06/29 03:34:37;;;;;;;6.43;5.18;;;20.30;81.40;;;;;;6278403;22;19998;-90
2021/06/29 03:37:04;;;;;;;4.90;4.38;;;20.20;81.50;;;;;;6277208;22;20078;-90
2021/06/29 03:39:31;;;;;;;4.78;4.28;;;20.30;81.50;;;;;;6276868;22;20000;-90
2021/06/29 03:41:57;;;;;;;5.57;4.72;;;20.30;81.50;;;;;;6278278;22;19999;-89
2021/06/29 03:44:23;;;;;;;5.35;4.57;;;20.30;81.50;;;;;;6277603;22;20047;-89
2021/06/29 03:46:48;;;;;;;5.25;4.75;;;20.40;82.10;;;;;;6276632;22;20011;-90
2021/06/29 03:49:14;;;;;;;5.18;4.68;;;20.40;81.50;;;;;;6277259;22;20019;-89
2021/06/29 03:51:40;;;;;;;6.28;4.50;;;20.40;81.50;;;;;;6277577;22;19995;-90
2021/06/29 03:54:06;;;;;;;4.85;4.35;;;20.50;81.60;;;;;;6278247;22;20419;-90
2021/06/29 03:56:32;;;;;;;5.20;4.68;;;20.50;81.60;;;;;;6277496;22;20370;-89
2021/06/29 03:59:00;;;;;;;5.05;4.20;;;20.60;81.50;;;;;;6280452;22;20110;-89
2021/06/29 04:01:27;;;;;;;4.97;4.47;;;20.70;81.40;;;;;;6278888;22;20312;-90
2021/06/29 04:03:56;;;;;;;5.10;4.60;;;20.80;81.30;;;;;;6278669;22;20004;-90
2021/06/29 04:06:27;;;;;;;5.32;4.60;;;20.90;81.00;;;;;;6278983;22;20010;-90
2021/06/29 04:08:55;;;;;;;5.28;4.78;;;21.00;80.70;;;;;;6279089;22;20004;-89
2021/06/29 04:11:22;;;;;;;6.20;4.63;;;21.10;80.40;;;;;;6278674;22;20003;-90
2021/06/29 04:13:48;;;;;;;4.95;4.45;;;21.30;80.10;;;;;;6278532;22;20014;-90
2021/06/29 04:16:14;;;;;;;4.75;4.18;;;21.40;79.80;;;;;;6278962;22;20501;-90
2021/06/29 04:18:40;;;;;;;5.50;4.40;;;21.50;79.50;;;;;;6278788;22;20000;-90
2021/06/29 04:21:06;;;;;;;4.60;4.20;;;21.70;79.30;;;;;;6280483;22;20004;-90
2021/06/29 04:23:32;;;;;;;5.47;4.75;;;21.80;78.80;;;;;;6279091;22;20022;-90
2021/06/29 04:25:58;;;;;;;5.05;4.47;;;22.00;78.40;;;;;;6278657;22;20003;-90
2021/06/29 04:28:23;;;;;;;4.75;4.25;;;22.20;78.00;;;;;;6280933;22;20037;-90
2021/06/29 04:30:49;;;;;;;6.97;5.07;;;22.30;77.50;;;;;;6300441;22;20031;-89
2021/06/29 04:33:15;;;;;;;5.28;4.78;;;22.40;76.80;;;;;;6305025;22;20056;-90
2021/06/29 04:35:41;;;;;;;4.70;3.97;;;22.50;76.60;;;;;;6305011;22;20010;-90
2021/06/29 04:38:06;;;;;;;4.72;4.22;;;22.60;76.30;;;;;;6304748;22;20039;-90
2021/06/29 04:40:32;;;;;;;5.07;4.20;;;22.60;76.00;;;;;;6304230;22;19999;-90
2021/06/29 04:42:57;;;;;;;4.97;4.38;;;22.70;76.00;;;;;;6286383;22;20010;-90
2021/06/29 04:45:26;;;;;;;5.10;4.60;;;22.80;75.90;;;;;;6280331;22;20029;-90
2021/06/29 04:47:53;;;;;;;5.57;4.80;;;23.00;75.60;;;;;;6279266;22;20014;-91
2021/06/29 04:50:19;;;;;;;5.28;4.75;;;23.10;75.10;;;;;;6278807;22;20057;-90
2021/06/29 04:52:45;;;;;;;4.93;4.53;;;23.30;75.10;;;;;;6278690;22;20079;-90
2021/06/29 04:55:11;;;;;;;5.18;4.70;;;23.40;74.10;;;;;;6280461;22;20078;-90
2021/06/29 04:57:37;;;;;;;7.07;4.97;;;23.50;73.40;;;;;;6283524;22;20007;-90
2021/06/29 05:00:09;;;;;;;4.97;4.57;;;23.50;73.40;;;;;;6282001;22;20293;-89
2021/06/29 05:02:38;;;;;;;4.78;4.30;;;23.60;72.90;;;;;;6279616;22;20004;-90
2021/06/29 05:05:08;;;;;;;5.20;4.70;;;23.70;73.00;;;;;;6279067;22;19995;-89
2021/06/29 05:07:41;;;;;;;6.63;5.05;;;23.90;72.60;;;;;;6278528;22;20003;-90
2021/06/29 05:10:09;;;;;;;5.82;5.20;;;24.00;72.10;;;;;;6280208;22;20000;-90
2021/06/29 05:12:36;;;;;;;5.68;4.72;;;24.10;71.40;;;;;;6282689;22;20180;-90
2021/06/29 05:15:05;;;;;;;5.18;4.68;;;24.10;70.80;;;;;;6280024;22;20209;-89
2021/06/29 05:17:30;;;;;;;4.85;4.43;;;24.20;70.70;;;;;;6278918;22;20011;-90
2021/06/29 05:19:56;;;;;;;5.53;4.57;;;24.20;70.60;;;;;;6282486;22;20000;-89
2021/06/29 05:22:22;;;;;;;4.55;4.15;;;24.30;70.10;;;;;;6280521;22;20012;-88
2021/06/29 05:24:48;;;;;;;4.72;4.30;;;24.30;69.70;;;;;;6281180;22;20103;-89
2021/06/29 05:27:14;;;;;;;4.72;4.32;;;24.40;69.80;;;;;;6279435;22;20030;-89
2021/06/29 05:29:39;;;;;;;5.45;4.45;;;24.40;69.50;;;;;;6280096;22;20004;-89
2021/06/29 05:32:06;;;;;;;5.18;4.68;;;24.40;69.00;;;;;;6280738;22;20003;-89
2021/06/29 05:34:31;;;;;;;6.80;4.43;;;24.40;68.40;;;;;;6280694;22;20042;-89
2021/06/29 05:36:57;;;;;;;5.30;4.80;;;24.30;68.90;;;;;;6278399;22;20327;-90
2021/06/29 05:39:23;;;;;;;7.78;4.57;;;24.20;69.10;;;;;;6279023;22;19996;-89
2021/06/29 05:41:48;;;;;;;5.63;4.03;;;24.10;69.30;;;;;;6279779;22;20419;-89
2021/06/29 05:44:14;;;;;;;4.70;4.30;;;24.10;69.70;;;;;;6279590;22;19995;-90
2021/06/29 05:46:41;;;;;;;5.40;4.90;;;24.10;69.60;;;;;;6280023;22;20031;-90
2021/06/29 05:49:12;;;;;;;5.03;4.57;;;24.00;69.60;;;;;;6287508;22;20054;-90
2021/06/29 05:51:40;;;;;;;5.57;5.07;;;24.00;69.80;;;;;;6283939;22;20000;-89
2021/06/29 05:54:05;;;;;;;10.80;5.68;;;23.90;69.70;;;;;;6283321;22;20082;-89
2021/06/29 05:56:31;;;;;;;5.30;4.80;;;23.90;69.60;;;;;;6282578;22;20240;-90
2021/06/29 05:58:58;;;;;;;5.90;5.32;;;23.90;69.80;;;;;;6280793;22;19996;-90
2021/06/29 06:01:23;;;;;;;6.53;5.15;;;23.90;69.80;;;;;;6281581;22;20003;-90
2021/06/29 06:03:49;;;;;;;7.07;5.28;;;24.00;69.70;;;;;;6282401;22;20105;-90
2021/06/29 06:06:15;;;;;;;5.63;4.95;;;24.20;69.60;;;;;;6282039;22;20011;-89
2021/06/29 06:08:41;;;;;;;5.43;4.88;;;24.30;69.30;;;;;;6281106;22;20057;-90
2021/06/29 06:11:06;;;;;;;5.47;4.53;;;24.40;68.90;;;;;;6280272;22;19996;-88
2021/06/29 06:13:32;;;;;;;4.70;4.30;;;24.50;68.70;;;;;;6279250;22;19996;-88
2021/06/29 06:16:00;;;;;;;5.30;4.60;;;24.60;68.50;;;;;;6279019;22;20443;-89
2021/06/29 06:18:26;;;;;;;6.88;4.70;;;24.70;68.20;;;;;;6277497;22;20008;-89
2021/06/29 06:20:51;;;;;;;4.80;4.30;;;24.90;68.30;;;;;;6279053;22;20004;-89
2021/06/29 06:23:18;;;;;;;6.20;5.60;;;25.00;68.10;;;;;;6277750;22;20022;-90
2021/06/29 06:25:43;;;;;;;5.38;4.88;;;25.20;66.90;;;;;;6278562;22;20000;-90
2021/06/29 06:28:09;;;;;;;5.28;4.63;;;25.30;66.60;;;;;;6279180;22;20010;-89
2021/06/29 06:30:37;;;;;;;6.10;4.72;;;25.30;66.60;;;;;;6279646;22;20107;-90
2021/06/29 06:33:03;;;;;;;5.70;5.20;;;25.40;66.60;;;;;;6280329;22;20415;-89
2021/06/29 06:35:29;;;;;;;5.85;5.35;;;25.40;66.20;;;;;;6285237;22;20006;-89
2021/06/29 06:37:55;;;;;;;6.00;5.40;;;25.30;66.20;;;;;;6285944;22;20014;-88
2021/06/29 06:40:21;;;;;;;5.85;5.18;;;25.20;66.50;;;;;;6289280;22;19995;-89
2021/06/29 06:42:47;;;;;;;5.30;4.80;;;25.20;66.70;;;;;;6296894;22;20013;-89
2021/06/29 06:45:14;;;;;;;6.50;5.30;;;25.10;67.10;;;;;;6292809;22;20003;-89
2021/06/29 06:47:39;;;;;;;5.97;5.22;;;25.20;67.40;;;;;;6298672;22;20023;-88
2021/06/29 06:50:09;;;;;;;5.85;5.25;;;25.30;67.10;;;;;;6299379;22;20067;-90
2021/06/29 06:52:35;;;;;;;5.78;5.28;;;25.30;66.70;;;;;;6299335;22;20000;-88
2021/06/29 06:55:05;;;;;;;6.43;5.82;;;25.40;66.80;;;;;;6301618;22;20003;-88
2021/06/29 06:57:31;;;;;;;7.20;5.80;;;25.40;66.80;;;;;;6300728;22;20045;-91
2021/06/29 07:00:00;;;;;;;6.78;5.97;;;25.40;66.60;;;;;;6299340;22;20003;-89
2021/06/29 07:02:26;;;;;;;6.85;5.93;;;25.30;66.40;;;;;;6294692;22;20000;-90
2021/06/29 07:04:54;;;;;;;6.07;5.47;;;25.30;66.50;;;;;;6290325;22;20000;-90
2021/06/29 07:07:20;;;;;;;7.28;5.25;;;25.30;66.30;;;;;;6293975;22;20015;-91
2021/06/29 07:09:46;;;;;;;6.85;5.93;;;25.30;66.30;;;;;;6291980;22;19996;-90
2021/06/29 07:12:16;;;;;;;6.18;5.57;;;25.40;66.30;;;;;;6293876;22;19999;-92
2021/06/29 07:14:42;;;;;;;8.15;5.55;;;25.40;66.00;;;;;;6290338;22;20004;-89
2021/06/29 07:17:10;;;;;;;5.28;4.57;;;25.30;65.90;;;;;;6286801;22;20065;-91
2021/06/29 07:19:39;;;;;;;5.38;4.88;;;25.40;66.00;;;;;;6282657;22;20011;-92
2021/06/29 07:22:08;;;;;;;5.90;5.10;;;25.40;65.80;;;;;;6279674;22;20027;-91
2021/06/29 07:24:35;;;;;;;5.40;4.90;;;25.50;65.90;;;;;;6278301;22;20026;-91
2021/06/29 07:27:04;;;;;;;6.45;5.32;;;25.60;64.30;;;;;;6278545;22;20051;-90
2021/06/29 07:29:30;;;;;;;6.05;5.50;;;25.60;63.60;;;;;;6277747;22;20035;-92
2021/06/29 07:31:56;;;;;;;5.72;5.22;;;25.60;63.60;;;;;;6277943;22;19999;-93
2021/06/29 07:34:23;;;;;;;5.10;4.53;;;25.60;63.10;;;;;;6281523;22;20000;-91
2021/06/29 07:36:52;;;;;;;5.57;4.43;;;25.70;63.00;;;;;;6280661;22;20022;-91
2021/06/29 07:39:17;;;;;;;4.70;4.22;;;25.80;63.10;;;;;;6280024;22;20007;-92
2021/06/29 07:41:43;;;;;;;6.80;5.40;;;26.10;62.70;;;;;;6279504;22;20003;-90
2021/06/29 07:44:13;;;;;;;5.97;5.40;;;26.30;62.00;;;;;;6281047;22;20025;-89
2021/06/29 07:46:39;;;;;;;5.38;4.82;;;26.30;61.70;;;;;;6251911;22;20022;-91
2021/06/29 07:49:10;;;;;;;4.47;4.07;;;26.40;61.90;;;;;;6282959;22;20077;-89
2021/06/29 07:51:36;;;;;;;5.47;4.20;;;26.50;61.40;;;;;;6291186;22;19996;-91
2021/06/29 07:54:02;;;;;;;5.47;4.53;;;26.60;60.60;;;;;;6291374;22;20132;-90
2021/06/29 07:56:28;;;;;;;5.20;4.70;;;26.60;60.00;;;;;;6286062;22;20031;-91
2021/06/29 07:58:55;;;;;;;5.93;4.65;;;26.60;59.30;;;;;;6282849;22;19996;-90
2021/06/29 08:01:21;;;;;;;4.80;4.00;;;26.60;59.40;;;;;;6276954;22;20019;-89
2021/06/29 08:03:47;;;;;;;9.88;4.25;;;26.50;59.90;;;;;;6278708;22;20007;-91
2021/06/29 08:06:14;;;;;;;6.57;5.00;;;26.50;60.60;;;;;;6276192;22;20003;-89
2021/06/29 08:08:40;;;;;;;6.88;5.63;;;26.60;60.70;;;;;;6275416;22;20224;-93
2021/06/29 08:11:08;;;;;;;5.28;4.78;;;26.80;60.50;;;;;;6276097;22;20004;-92
2021/06/29 08:13:36;;;;;;;5.55;3.75;;;26.80;60.00;;;;;;6277023;22;20069;-92
2021/06/29 08:16:02;;;;;;;4.43;4.03;;;26.90;60.20;;;;;;6276623;22;20000;-91
2021/06/29 08:18:28;;;;;;;5.35;4.03;;;26.90;59.40;;;;;;6279786;22;20011;-92
2021/06/29 08:20:56;;;;;;;5.13;4.63;;;26.80;59.70;;;;;;6280270;22;20007;-89
2021/06/29 08:23:23;;;;;;;5.25;4.75;;;26.90;59.60;;;;;;6275820;22;20012;-89
2021/06/29 08:25:48;;;;;;;5.07;4.57;;;26.80;59.60;;;;;;6276894;22;20027;-89
2021/06/29 08:28:16;;;;;;;4.50;4.10;;;26.90;60.00;;;;;;6278371;22;20004;-91
2021/06/29 08:30:42;;;;;;;5.72;5.22;;;27.00;60.30;;;;;;6278378;22;20090;-91
2021/06/29 08:33:13;;;;;;;4.75;4.28;;;27.30;59.50;;;;;;6277074;22;20099;-90
2021/06/29 08:35:41;;;;;;;5.65;4.97;;;27.60;59.10;;;;;;6277711;22;20003;-90
2021/06/29 08:38:08;;;;;;;4.85;4.45;;;27.80;58.30;;;;;;6280431;22;20007;-90
2021/06/29 08:40:38;;;;;;;4.40;4.00;;;27.90;58.10;;;;;;6286718;22;20079;-93
2021/06/29 08:43:07;;;;;;;5.40;4.20;;;28.00;58.20;;;;;;6285100;22;19996;-92
2021/06/29 08:45:33;;;;;;;4.00;3.60;;;28.00;57.00;;;;;;6283354;22;20000;-90
2021/06/29 08:48:00;;;;;;;3.90;3.60;;;27.80;56.30;;;;;;6282610;22;20016;-91
2021/06/29 08:50:31;;;;;;;3.90;3.58;;;27.60;56.60;;;;;;6253666;22;20339;-90
2021/06/29 08:53:20;;;;;;;4.45;4.07;;;27.50;56.30;;;;;;6278836;22;20071;-90
2021/06/29 08:55:49;;;;;;;3.83;3.45;;;27.30;55.60;;;;;;6279722;22;20050;-91
2021/06/29 08:58:22;;;;;;;4.57;3.60;;;27.30;56.70;;;;;;6278343;22;20074;-90
2021/06/29 09:00:49;;;;;;;;;;;27.40;55.90;;;;;;6277734;22;20082;-91
2021/06/29 09:03:15;;;;;;;4.55;4.15;;;27.30;55.60;;;;;;6278956;22;19911;-90
2021/06/29 09:05:46;;;;;;;4.25;3.80;;;27.30;55.90;;;;;;6279838;22;20057;-89
2021/06/29 09:08:17;;;;;;;4.50;3.97;;;27.30;55.00;;;;;;6279193;22;20015;-89
2021/06/29 09:11:05;;;;;;;6.45;3.60;;;27.20;54.70;;;;;;6287417;22;20007;-91
2021/06/29 09:13:31;;;;;;;3.67;3.00;;;27.10;55.30;;;;;;6299029;22;20027;-90
2021/06/29 09:15:58;;;;;;;3.90;3.42;;;27.10;54.40;;;;;;6297776;22;20059;-90
2021/06/29 09:18:28;;;;;;;3.42;3.13;;;27.20;54.10;;;;;;6299233;22;20003;-88
2021/06/29 09:21:24;;;;;;;3.03;2.72;;;27.20;52.80;;;;;;6302495;22;19998;-90
2021/06/29 09:23:51;;;;;;;3.60;3.30;;;27.30;53.80;;;;;;6266412;22;20020;-88
2021/06/29 09:26:26;;;;;;;3.15;2.85;;;27.20;52.20;;;;;;6279414;22;20090;-90
2021/06/29 09:28:54;;;;;;;3.13;2.92;;;27.10;52.30;;;;;;6280989;22;20000;-90
2021/06/29 09:31:23;;;;;;;2.92;2.70;;;27.10;51.40;;;;;;6278285;22;20098;-90
2021/06/29 09:33:57;;;;;;;3.25;2.90;;;27.10;52.10;;;;;;6280244;22;20047;-91
2021/06/29 09:36:30;;;;;;;3.50;3.20;;;27.20;52.10;;;;;;6279752;22;20123;-92
2021/06/29 09:39:06;;;;;;;2.92;2.72;;;27.30;52.20;;;;;;6251435;22;20008;-92
2021/06/29 09:41:35;;;;;;;3.40;3.05;;;27.40;52.50;;;;;;6277955;22;20003;-90
2021/06/29 09:44:18;;;;;;;4.13;3.75;;;27.40;52.60;;;;;;6277998;22;20000;-91
2021/06/29 09:46:45;;;;;;;4.00;3.60;;;27.40;51.50;;;;;;6277991;22;20010;-90
2021/06/29 09:49:15;;;;;;;3.75;3.45;;;27.30;53.20;;;;;;6279313;22;20388;-90
2021/06/29 09:51:49;;;;;;;4.03;3.63;;;27.40;54.00;;;;;;6278932;22;20025;-91
2021/06/29 09:54:17;;;;;;;;;;;27.40;53.60;;;;;;6279517;22;20000;-90
2021/06/29 09:56:47;;;;;;;3.70;3.40;;;27.30;54.40;;;;;;6274609;22;19921;-91
2021/06/29 09:59:16;;;;;;;3.75;3.45;;;27.30;54.30;;;;;;6282105;22;20046;-93
2021/06/29 10:01:44;;;;;;;3.35;3.05;;;27.40;54.50;;;;;;6277728;22;20026;-93
2021/06/29 10:04:14;;;;;;;4.35;3.95;;;27.40;53.70;;;;;;6274344;22;20012;-91
2021/06/29 10:06:42;;;;;;;3.00;2.80;;;27.50;52.60;;;;;;6276654;22;20003;-91
2021/06/29 10:09:19;;;;;;;4.28;3.85;;;27.50;52.40;;;;;;6279754;22;20327;-91
2021/06/29 10:12:27;;;;;;;5.88;3.88;;;27.50;53.70;;;;;;6273929;22;20276;-89
2021/06/29 10:14:53;;;;;;;3.70;3.40;;;27.50;53.90;;;;;;6277866;22;20039;-87
2021/06/29 10:17:20;;;;;;;4.22;3.83;;;27.60;54.10;;;;;;6277340;22;20000;-92
2021/06/29 10:20:09;;;;;;;4.15;3.75;;;27.70;54.30;;;;;;6276411;22;20004;-92
2021/06/29 10:22:36;;;;;;;3.55;3.25;;;27.90;54.60;;;;;;6278816;22;20011;-91
2021/06/29 10:25:10;;;;;;;3.92;3.60;;;27.90;53.90;;;;;;6252286;22;20000;-93
2021/06/29 10:27:41;;;;;;;4.07;3.72;;;28.00;53.90;;;;;;6280203;22;20038;-96
2021/06/29 10:33:24;;;;;;;3.90;3.60;;;28.00;54.10;;;;;;6304051;22;20007;-96
2021/06/29 10:35:57;;;;;;;3.75;3.45;;;27.80;54.30;;;;;;6330721;22;20007;-93
2021/06/29 10:38:32;;;;;;;4.68;3.80;;;27.70;54.60;;;;;;6327499;22;20002;-94
2021/06/29 10:51:11;;;;;;;4.68;3.97;;;27.50;54.60;;;;;;6317502;22;20068;-95
2021/06/29 10:53:42;;;;;;;4.22;3.83;;;27.30;55.40;;;;;;6319183;22;20011;-94
2021/06/29 10:56:16;;;;;;;4.13;3.72;;;27.10;55.80;;;;;;6310232;22;20000;-96
2021/06/29 10:58:47;;;;;;;3.97;3.67;;;27.10;56.30;;;;;;6312856;22;19999;-94
2021/06/29 11:01:38;;;;;;;4.25;3.85;;;27.00;56.60;;;;;;6319176;22;19995;-95
2021/06/29 11:04:06;;;;;;;3.65;3.35;;;26.90;56.70;;;;;;6313729;22;20003;-96
2021/06/29 11:06:52;;;;;;;;;;;;;;;;;;;;;
2021/06/29 11:09:21;;;;;;;7.07;4.53;;;26.90;56.70;;;;;;6323956;22;20006;-94
2021/06/29 11:12:23;;;;;;;4.25;3.70;;;26.70;55.90;;;;;;6317568;22;19999;-95
2021/06/29 11:14:51;;;;;;;3.88;3.08;;;26.50;54.90;;;;;;6315051;22;20025;-94
2021/06/29 11:20:54;;;;;;;3.78;3.33;;;25.90;56.10;;;;;;6312844;22;20450;-95
2021/06/29 11:23:35;;;;;;;3.70;3.40;;;25.70;57.50;;;;;;6316299;22;20025;-96
2021/06/29 11:26:12;;;;;;;3.47;2.80;;;25.70;57.30;;;;;;6303013;22;20003;-95
2021/06/29 11:28:46;;;;;;;2.80;2.50;;;25.60;57.60;;;;;;6331979;22;20021;-94
2021/06/29 11:31:12;;;;;;;4.53;2.67;;;25.40;56.80;;;;;;6331911;22;20009;-92
2021/06/29 11:33:58;;;;;;;2.22;2.03;;;25.30;56.90;;;;;;6332187;22;20011;-91
2021/06/29 11:36:28;;;;;;;2.88;2.40;;;25.20;56.20;;;;;;6301822;22;19992;-93
2021/06/29 11:39:25;;;;;;;2.45;2.25;;;25.10;56.20;;;;;;6293160;22;19996;-92
2021/06/29 11:42:01;;;;;;;3.50;2.70;;;25.10;56.20;;;;;;6284744;22;20030;-91
2021/06/29 11:44:27;;;;;;;3.00;2.53;;;25.10;56.30;;;;;;6281502;22;20000;-94
2021/06/29 11:47:06;;;;;;;3.65;3.00;;;25.10;56.40;;;;;;6277468;22;20071;-91
2021/06/29 11:49:48;;;;;;;5.82;3.13;;;25.10;56.90;;;;;;6251161;22;20025;-92
2021/06/29 11:52:19;;;;;;;3.95;2.80;;;25.10;57.00;;;;;;6275867;22;20061;-91
2021/06/29 11:55:02;;;;;;;2.72;2.53;;;25.10;56.80;;;;;;6274740;22;20332;-91
2021/06/29 11:57:43;;;;;;;3.60;3.05;;;25.10;56.80;;;;;;6275213;22;20004;-91
2021/06/29 12:00:16;;;;;;;4.05;2.65;;;25.20;57.00;;;;;;6276666;22;20009;-94
2021/06/29 12:02:42;;;;;;;2.67;2.47;;;25.20;56.60;;;;;;6277910;22;20000;-95
2021/06/29 12:05:16;;;;;;;2.30;2.10;;;25.20;56.00;;;;;;6279444;22;20015;-92
2021/06/29 12:07:43;;;;;;;2.83;2.47;;;25.20;55.80;;;;;;6277037;22;20343;-94
2021/06/29 12:10:11;;;;;;;3.75;2.90;;;25.20;56.00;;;;;;6276344;22;20011;-93
2021/06/29 12:12:42;;;;;;;3.17;2.45;;;25.20;56.00;;;;;;6275921;22;20000;-93
2021/06/29 12:15:18;;;;;;;8.63;3.00;;;25.20;56.00;;;;;;6278956;22;20438;-90
2021/06/29 12:17:51;;;;;;;4.30;2.95;;;25.20;56.10;;;;;;6277820;22;20000;-93
2021/06/29 12:20:19;;;;;;;7.00;3.22;;;25.20;56.50;;;;;;6277901;22;20451;-92
2021/06/29 12:22:46;;;;;;;3.15;2.88;;;25.20;57.00;;;;;;6277906;22;20006;-94
2021/06/29 12:25:52;;;;;;;3.28;2.85;;;25.10;57.40;;;;;;6278823;22;20000;-92
2021/06/29 12:28:34;;;;;;;3.90;3.50;;;25.10;58.90;;;;;;6277178;22;20018;-91
2021/06/29 12:31:10;;;;;;;3.88;3.47;;;25.10;58.80;;;;;;6278379;22;20011;-91
2021/06/29 12:33:38;;;;;;;5.07;3.83;;;25.10;59.20;;;;;;6279442;22;20073;-92
2021/06/29 12:36:16;;;;;;;3.40;3.10;;;25.10;59.90;;;;;;6281643;22;20011;-93
2021/06/29 12:38:51;;;;;;;4.85;3.33;;;25.20;60.50;;;;;;6286153;22;20000;-95
2021/06/29 12:41:26;;;;;;;4.93;3.30;;;25.30;60.70;;;;;;6290328;22;19999;-94
2021/06/29 12:43:58;;;;;;;3.20;2.80;;;25.40;61.10;;;;;;6288957;22;20010;-92
2021/06/29 12:46:27;;;;;;;3.77;3.47;;;25.50;61.50;;;;;;6291130;22;20064;-94
2021/06/29 12:49:05;;;;;;;3.70;3.40;;;25.70;61.60;;;;;;6287733;22;19999;-93
2021/06/29 12:51:43;;;;;;;4.65;3.30;;;26.00;61.40;;;;;;6284096;22;19996;-93
2021/06/29 12:54:23;;;;;;;4.25;3.60;;;26.30;61.20;;;;;;6281698;22;20363;-93
2021/06/29 12:57:09;;;;;;;4.20;3.33;;;26.60;60.80;;;;;;6282830;22;20083;-93
2021/06/29 12:59:41;;;;;;;3.85;3.50;;;27.20;59.90;;;;;;6281220;22;19996;-94
2021/06/29 13:02:23;;;;;;;4.72;3.72;;;27.60;59.80;;;;;;6278986;22;20052;-95
2021/06/29 13:04:52;;;;;;;3.78;3.47;;;28.00;57.60;;;;;;6277491;22;20052;-94
2021/06/29 13:07:19;;;;;;;3.70;3.40;;;28.10;57.30;;;;;;6278156;22;20012;-94
2021/06/29 13:09:46;;;;;;;3.47;3.17;;;28.20;56.00;;;;;;6278225;22;20003;-93
2021/06/29 13:12:21;;;;;;;3.55;3.20;;;28.20;55.60;;;;;;6279132;22;20004;-95
2021/06/29 13:14:55;;;;;;;3.50;2.53;;;28.20;55.70;;;;;;6293562;22;20087;-94
2021/06/29 13:22:49;;;;;;;3.58;2.95;;;29.10;54.80;;;;;;6302920;22;19926;-92